Kasimov, Russia
Current Conditions -  °F | °C
As of 1:30 PM on Saturday 01 Nov 2014 (Local Time) from UWGG Reporting Station
Broken Clouds Broken Clouds  
Wind Chill: 31°   Ceiling: 2900
Heat Index: 37°   Visibility: 6mi
Dew Point: 25°   Wind: 9mph
Humidity: 60%   Direction: 10°N
Pressure: 30"   Gusts: NA
Location:  54.94°N, 41.39°E
Report Text: UWGG 011030Z 01004MPS 9999 BKN029 03/M04 Q1016 NOSIG 36090060RMK QFE755
Loading
Personal Weather Stations






























Interactive Weather Map
Tropical Storm Tracking
New forecast layout! Learn more

10-Day Weather Forecast

Advertisements
Track Severe Weather on mobile